Time;durP1;ratioP1;P1;durP2;ratioP2;P2;SDS_P1;SDS_P2;PMS_P1;PMS_P2;Temp;Humidity;BMP_temperature;BMP_pressure;BME280_temperature;BME280_humidity;BME280_pressure;Samples;Min_cycle;Max_cycle;Signal;HPM_P1;HPM_P2
2022/09/23 00:00:49;;;;;;;10.75;8.68;;;;;;;;;;5043008;28;20915;-81
2022/09/23 00:03:16;;;;;;;12.02;9.43;;;;;;;;;;5039548;28;20437;-81
2022/09/23 00:05:42;;;;;;;13.15;9.13;;;;;;;;;;5041542;28;20524;-85
2022/09/23 00:08:11;;;;;;;9.70;8.70;;;;;;;;;;5043015;28;20430;-81
2022/09/23 00:10:38;;;;;;;9.48;8.50;;;;;;;;;;5043411;28;20923;-81
2022/09/23 00:13:05;;;;;;;11.77;9.43;;;;;;;;;;5042762;28;20430;-81
2022/09/23 00:15:32;;;;;;;9.65;8.65;;;;;;;;;;5040279;28;20433;-82
2022/09/23 00:18:00;;;;;;;11.40;8.80;;;;;;;;;;5040588;28;20487;-82
2022/09/23 00:20:27;;;;;;;11.23;9.03;;;;;;;;;;5039364;28;20907;-83
2022/09/23 00:22:53;;;;;;;10.40;9.40;;;;;;;;;;5044392;28;20439;-83
2022/09/23 00:25:20;;;;;;;13.48;8.57;;;;;;;;;;5041713;28;20445;-82
2022/09/23 00:27:46;;;;;;;12.60;9.27;;;;;;;;;;5043544;28;20426;-83
2022/09/23 00:30:13;;;;;;;9.88;8.88;;;;;;;;;;5043333;28;20423;-82
2022/09/23 00:32:39;;;;;;;9.85;8.80;;;;;;;;;;5043142;28;20417;-83
2022/09/23 00:35:09;;;;;;;10.02;8.23;;;;;;;;;;5044409;28;20431;-83
2022/09/23 00:37:36;;;;;;;9.23;8.15;;;;;;;;;;5041089;28;20447;-82
2022/09/23 00:40:02;;;;;;;9.95;8.73;;;;;;;;;;5040887;28;20933;-83
2022/09/23 00:42:29;;;;;;;11.65;8.15;;;;;;;;;;5040157;28;21020;-83
2022/09/23 00:44:56;;;;;;;10.30;8.77;;;;;;;;;;5039862;28;20777;-82
2022/09/23 00:47:24;;;;;;;10.13;8.68;;;;;;;;;;5041767;28;20427;-80
2022/09/23 00:49:54;;;;;;;11.32;9.02;;;;;;;;;;5041489;28;20409;-83
2022/09/23 00:52:23;;;;;;;10.07;8.40;;;;;;;;;;5040493;28;20423;-83
2022/09/23 00:54:53;;;;;;;10.95;8.13;;;;;;;;;;5043707;28;20508;-83
2022/09/23 00:57:20;;;;;;;9.65;8.65;;;;;;;;;;5038581;28;20844;-80
2022/09/23 00:59:48;;;;;;;9.43;8.40;;;;;;;;;;5042350;28;20513;-80
2022/09/23 01:02:15;;;;;;;9.48;8.48;;;;;;;;;;5038391;28;20818;-81
2022/09/23 01:04:42;;;;;;;9.50;8.50;;;;;;;;;;5043083;28;20444;-81
2022/09/23 01:07:08;;;;;;;10.15;8.10;;;;;;;;;;5041617;28;20419;-80
2022/09/23 01:09:36;;;;;;;9.13;8.13;;;;;;;;;;5043259;28;20429;-81
2022/09/23 01:12:10;;;;;;;9.70;8.55;;;;;;;;;;5044268;28;20424;-81
2022/09/23 01:14:41;;;;;;;9.25;8.02;;;;;;;;;;5043458;28;20431;-80
2022/09/23 01:17:09;;;;;;;10.07;7.90;;;;;;;;;;5039273;28;20764;-81
2022/09/23 01:19:50;;;;;;;10.35;8.27;;;;;;;;;;5043166;28;20914;-81
2022/09/23 01:22:20;;;;;;;8.57;7.70;;;;;;;;;;5039636;28;21274;-81
2022/09/23 01:24:58;;;;;;;9.05;7.90;;;;;;;;;;5043180;28;20931;-81
2022/09/23 01:27:39;;;;;;;9.07;8.18;;;;;;;;;;5041561;28;20421;-81
2022/09/23 01:30:15;;;;;;;11.77;7.93;;;;;;;;;;5038602;28;20502;-82
2022/09/23 01:32:59;;;;;;;10.10;7.85;;;;;;;;;;5045322;28;20436;-81
2022/09/23 01:35:30;;;;;;;9.40;7.72;;;;;;;;;;5044708;28;20417;-81
2022/09/23 01:37:59;;;;;;;8.70;7.80;;;;;;;;;;5045709;28;20425;-82
2022/09/23 01:40:31;;;;;;;10.23;8.23;;;;;;;;;;5046927;28;20431;-81
2022/09/23 01:43:03;;;;;;;10.23;8.60;;;;;;;;;;5047140;28;20531;-81
2022/09/23 01:45:32;;;;;;;10.60;8.50;;;;;;;;;;5048291;28;20439;-82
2022/09/23 01:48:01;;;;;;;11.27;8.63;;;;;;;;;;5044667;28;20417;-81
2022/09/23 01:53:18;;;;;;;11.10;9.60;;;;;;;;;;5046324;28;21137;-82
2022/09/23 01:55:48;;;;;;;10.77;9.02;;;;;;;;;;5045019;28;20438;-82
2022/09/23 01:58:15;;;;;;;10.80;8.53;;;;;;;;;;5045288;28;20420;-83
2022/09/23 02:00:44;;;;;;;9.90;8.80;;;;;;;;;;5048308;28;20425;-81
2022/09/23 02:03:15;;;;;;;11.38;9.07;;;;;;;;;;5044543;28;20431;-81
2022/09/23 02:05:45;;;;;;;11.65;8.68;;;;;;;;;;5047599;28;20434;-81
2022/09/23 02:08:15;;;;;;;10.40;8.85;;;;;;;;;;5045010;28;20477;-82
2022/09/23 02:10:44;;;;;;;9.43;7.90;;;;;;;;;;5046136;28;20432;-81
2022/09/23 02:13:14;;;;;;;8.80;8.00;;;;;;;;;;5047055;28;20484;-81
2022/09/23 02:15:43;;;;;;;10.70;8.80;;;;;;;;;;5044610;28;20517;-80
2022/09/23 02:18:12;;;;;;;10.07;9.07;;;;;;;;;;5044934;28;20454;-81
2022/09/23 02:20:39;;;;;;;10.60;8.02;;;;;;;;;;5044972;28;20434;-82
2022/09/23 02:23:11;;;;;;;9.23;8.27;;;;;;;;;;5046840;28;20433;-81
2022/09/23 02:25:39;;;;;;;10.15;8.80;;;;;;;;;;5045671;28;20456;-81
2022/09/23 02:28:09;;;;;;;13.30;9.80;;;;;;;;;;5045099;28;20437;-81
2022/09/23 02:30:42;;;;;;;10.23;9.10;;;;;;;;;;5048987;28;20438;-82
2022/09/23 02:33:10;;;;;;;10.35;9.07;;;;;;;;;;5044026;28;20446;-82
2022/09/23 02:35:39;;;;;;;10.60;9.10;;;;;;;;;;5044781;28;20479;-81
2022/09/23 02:38:13;;;;;;;11.77;9.43;;;;;;;;;;5041397;28;20432;-82
2022/09/23 02:40:41;;;;;;;10.50;9.30;;;;;;;;;;5044889;28;20421;-81
2022/09/23 02:43:10;;;;;;;10.63;9.05;;;;;;;;;;5042935;28;20430;-81
2022/09/23 02:45:37;;;;;;;11.75;9.50;;;;;;;;;;5044658;28;20462;-81
2022/09/23 02:48:07;;;;;;;11.68;9.25;;;;;;;;;;5045268;28;20425;-82
2022/09/23 02:50:34;;;;;;;11.50;9.33;;;;;;;;;;5043124;28;20796;-82
2022/09/23 02:53:01;;;;;;;12.93;9.38;;;;;;;;;;5045300;28;20445;-82
2022/09/23 02:55:31;;;;;;;10.00;9.00;;;;;;;;;;5045978;28;20433;-82
2022/09/23 02:57:59;;;;;;;11.18;8.82;;;;;;;;;;5060078;28;20481;-82
2022/09/23 03:00:28;;;;;;;11.23;8.83;;;;;;;;;;5043699;28;20411;-82
2022/09/23 03:03:16;;;;;;;10.23;8.50;;;;;;;;;;5046104;28;20509;-81
2022/09/23 03:05:46;;;;;;;9.57;8.45;;;;;;;;;;5044816;28;20431;-81
2022/09/23 03:08:24;;;;;;;8.70;7.80;;;;;;;;;;5045241;28;20426;-81
2022/09/23 03:10:55;;;;;;;10.40;8.40;;;;;;;;;;5043106;28;20426;-81
2022/09/23 03:13:29;;;;;;;11.52;8.10;;;;;;;;;;5043953;28;20420;-81
2022/09/23 03:16:00;;;;;;;8.43;7.60;;;;;;;;;;5046444;28;20431;-81
2022/09/23 03:18:30;;;;;;;9.50;8.40;;;;;;;;;;5045741;28;20518;-82
2022/09/23 03:20:58;;;;;;;11.75;8.43;;;;;;;;;;5046091;28;20914;-81
2022/09/23 03:23:27;;;;;;;9.10;8.20;;;;;;;;;;5045509;28;20422;-81
2022/09/23 03:25:56;;;;;;;9.40;7.43;;;;;;;;;;5045931;28;20418;-81
2022/09/23 03:28:24;;;;;;;10.35;7.93;;;;;;;;;;5044406;28;20975;-81
2022/09/23 03:30:51;;;;;;;8.73;7.70;;;;;;;;;;5045589;28;20430;-81
2022/09/23 03:33:19;;;;;;;12.43;8.20;;;;;;;;;;5042472;28;20449;-81
2022/09/23 03:38:38;;;;;;;10.45;8.00;;;;;;;;;;5044878;28;20801;-82
2022/09/23 03:41:08;;;;;;;10.05;7.30;;;;;;;;;;5043854;28;20455;-81
2022/09/23 03:43:35;;;;;;;9.43;7.40;;;;;;;;;;5041792;28;20433;-83
2022/09/23 03:46:02;;;;;;;11.23;8.18;;;;;;;;;;5043365;28;20422;-83
2022/09/23 03:48:28;;;;;;;9.68;7.40;;;;;;;;;;5042011;28;20434;-80
2022/09/23 03:50:54;;;;;;;12.97;8.00;;;;;;;;;;5043961;28;20432;-81
2022/09/23 03:53:21;;;;;;;9.13;8.15;;;;;;;;;;5043116;28;20966;-80
2022/09/23 03:55:47;;;;;;;10.02;7.80;;;;;;;;;;5043444;28;20441;-83
2022/09/23 03:58:16;;;;;;;8.30;7.50;;;;;;;;;;5042651;28;20429;-82
2022/09/23 04:00:43;;;;;;;10.53;7.70;;;;;;;;;;5045851;28;20768;-82
2022/09/23 04:03:10;;;;;;;8.73;7.20;;;;;;;;;;5045038;28;20451;-81
2022/09/23 04:05:36;;;;;;;8.68;7.80;;;;;;;;;;5043900;28;20425;-82
2022/09/23 04:08:03;;;;;;;11.25;7.75;;;;;;;;;;5043045;28;20430;-81
2022/09/23 04:10:29;;;;;;;9.13;7.57;;;;;;;;;;5043154;28;20977;-82
2022/09/23 04:12:56;;;;;;;13.57;7.80;;;;;;;;;;5041642;28;20435;-81
2022/09/23 04:15:24;;;;;;;9.23;7.57;;;;;;;;;;5043915;28;20429;-82
2022/09/23 04:17:50;;;;;;;9.20;8.20;;;;;;;;;;5043388;28;20445;-82
2022/09/23 04:20:17;;;;;;;9.57;7.20;;;;;;;;;;5044320;28;20521;-81
2022/09/23 04:22:44;;;;;;;8.00;7.20;;;;;;;;;;5043413;28;20471;-83
2022/09/23 04:25:11;;;;;;;8.20;6.97;;;;;;;;;;5041906;28;20438;-84
2022/09/23 04:27:37;;;;;;;12.85;7.70;;;;;;;;;;5042098;28;20418;-83
2022/09/23 04:30:05;;;;;;;9.60;7.20;;;;;;;;;;5043257;28;21076;-81
2022/09/23 04:32:33;;;;;;;8.03;7.20;;;;;;;;;;5040887;28;20458;-80
2022/09/23 04:34:59;;;;;;;9.55;7.18;;;;;;;;;;5046000;28;20436;-80
2022/09/23 04:37:26;;;;;;;8.73;7.38;;;;;;;;;;5042649;28;20969;-82
2022/09/23 04:39:52;;;;;;;12.32;7.70;;;;;;;;;;5042727;28;20434;-82
2022/09/23 04:42:19;;;;;;;8.55;7.13;;;;;;;;;;5043198;28;20510;-82
2022/09/23 04:44:45;;;;;;;10.50;8.00;;;;;;;;;;5044105;28;20431;-82
2022/09/23 04:47:11;;;;;;;9.82;7.90;;;;;;;;;;5040055;28;20435;-84
2022/09/23 04:49:40;;;;;;;10.10;8.38;;;;;;;;;;5042727;28;20445;-82
2022/09/23 04:52:06;;;;;;;8.18;7.38;;;;;;;;;;5046256;28;20416;-83
2022/09/23 04:54:33;;;;;;;11.18;7.97;;;;;;;;;;5043427;28;20434;-83
2022/09/23 04:56:59;;;;;;;10.30;7.80;;;;;;;;;;5043521;28;20423;-82
2022/09/23 04:59:26;;;;;;;13.98;7.93;;;;;;;;;;5041495;28;20964;-82
2022/09/23 05:01:54;;;;;;;11.27;8.38;;;;;;;;;;5041585;28;20426;-82
2022/09/23 05:04:20;;;;;;;8.45;7.65;;;;;;;;;;5040809;28;20435;-82
2022/09/23 05:06:48;;;;;;;9.40;7.75;;;;;;;;;;5042996;28;20437;-83
2022/09/23 05:09:16;;;;;;;8.80;7.28;;;;;;;;;;5043246;28;20413;-82
2022/09/23 05:11:44;;;;;;;10.50;8.00;;;;;;;;;;5040536;28;20422;-83
2022/09/23 05:14:11;;;;;;;8.25;7.35;;;;;;;;;;5042930;28;20437;-82
2022/09/23 05:16:37;;;;;;;9.65;7.70;;;;;;;;;;5042730;28;20470;-83
2022/09/23 05:19:04;;;;;;;9.03;7.80;;;;;;;;;;5040575;28;20434;-82
2022/09/23 05:21:31;;;;;;;9.43;7.60;;;;;;;;;;5039352;28;20446;-82
2022/09/23 05:23:59;;;;;;;9.70;7.90;;;;;;;;;;5043298;28;20434;-82
2022/09/23 05:26:26;;;;;;;9.15;7.90;;;;;;;;;;5040928;28;20794;-83
2022/09/23 05:28:53;;;;;;;10.68;8.20;;;;;;;;;;5043258;28;20427;-83
2022/09/23 05:31:21;;;;;;;9.60;8.20;;;;;;;;;;5041969;28;20795;-83
2022/09/23 05:33:50;;;;;;;10.13;8.35;;;;;;;;;;5042601;28;20424;-83
2022/09/23 05:36:17;;;;;;;11.80;8.20;;;;;;;;;;5042315;28;20441;-83
2022/09/23 05:38:44;;;;;;;12.48;8.18;;;;;;;;;;5040296;28;20434;-83
2022/09/23 05:41:12;;;;;;;11.45;8.55;;;;;;;;;;5040228;28;20466;-83
2022/09/23 05:43:39;;;;;;;10.85;7.63;;;;;;;;;;5041253;28;20445;-83
2022/09/23 05:46:07;;;;;;;11.10;7.97;;;;;;;;;;5041504;28;20455;-83
2022/09/23 05:48:34;;;;;;;12.20;7.75;;;;;;;;;;5040136;28;20438;-83
2022/09/23 05:51:01;;;;;;;9.07;7.97;;;;;;;;;;5038861;28;20434;-82
2022/09/23 05:53:28;;;;;;;12.13;8.52;;;;;;;;;;5056575;28;20471;-83
2022/09/23 05:55:55;;;;;;;9.45;8.15;;;;;;;;;;5041900;28;20439;-83
2022/09/23 05:58:23;;;;;;;10.17;7.70;;;;;;;;;;5040886;28;20412;-83
2022/09/23 06:00:50;;;;;;;8.75;7.30;;;;;;;;;;5041966;28;20425;-83
2022/09/23 06:03:18;;;;;;;11.33;8.47;;;;;;;;;;5043206;28;20861;-83
2022/09/23 06:05:44;;;;;;;9.55;7.53;;;;;;;;;;5042507;28;20496;-83
2022/09/23 06:08:11;;;;;;;8.80;7.90;;;;;;;;;;5043662;28;20413;-83
2022/09/23 06:10:38;;;;;;;9.10;7.68;;;;;;;;;;5041168;28;20433;-83
2022/09/23 06:13:05;;;;;;;10.43;7.45;;;;;;;;;;5042808;28;20422;-83
2022/09/23 06:15:33;;;;;;;10.95;7.60;;;;;;;;;;5043326;28;20436;-83
2022/09/23 06:17:59;;;;;;;10.63;8.30;;;;;;;;;;5043166;28;20421;-82
2022/09/23 06:20:26;;;;;;;12.45;8.38;;;;;;;;;;5044193;28;20441;-83
2022/09/23 06:22:53;;;;;;;10.73;7.60;;;;;;;;;;5044871;28;20503;-83
2022/09/23 06:25:21;;;;;;;9.20;7.57;;;;;;;;;;5046828;28;20427;-83
2022/09/23 06:27:53;;;;;;;9.32;7.70;;;;;;;;;;5039693;28;20431;-82
2022/09/23 06:30:19;;;;;;;8.55;7.60;;;;;;;;;;5043935;28;20493;-83
2022/09/23 06:32:50;;;;;;;10.75;7.78;;;;;;;;;;5043370;28;20441;-83
2022/09/23 06:35:17;;;;;;;11.45;7.32;;;;;;;;;;5044586;28;20540;-83
2022/09/23 06:37:44;;;;;;;8.68;6.63;;;;;;;;;;5043465;28;20439;-83
2022/09/23 06:40:11;;;;;;;8.10;6.80;;;;;;;;;;5046524;28;20796;-83
2022/09/23 06:42:37;;;;;;;8.57;7.20;;;;;;;;;;5043786;28;20417;-82
2022/09/23 06:45:04;;;;;;;8.32;6.60;;;;;;;;;;5047637;28;20435;-83
2022/09/23 06:47:31;;;;;;;7.28;6.07;;;;;;;;;;5044573;28;20421;-82
2022/09/23 06:49:59;;;;;;;9.48;6.30;;;;;;;;;;5043770;28;20807;-82
2022/09/23 06:52:25;;;;;;;9.07;6.03;;;;;;;;;;5044674;28;20421;-82
2022/09/23 06:54:52;;;;;;;7.10;6.40;;;;;;;;;;5044042;28;20429;-83
2022/09/23 06:57:19;;;;;;;7.10;6.05;;;;;;;;;;5048825;28;20437;-83
2022/09/23 06:59:45;;;;;;;8.15;6.25;;;;;;;;;;5043266;28;20414;-83
2022/09/23 07:02:12;;;;;;;10.68;6.53;;;;;;;;;;5044688;28;20429;-83
2022/09/23 07:04:39;;;;;;;7.47;5.97;;;;;;;;;;5044480;28;20510;-83
2022/09/23 07:07:09;;;;;;;7.43;5.85;;;;;;;;;;5061145;28;20834;-83
2022/09/23 07:09:36;;;;;;;7.22;6.47;;;;;;;;;;5046652;28;20435;-83
2022/09/23 07:12:02;;;;;;;8.60;6.40;;;;;;;;;;5043946;28;20417;-83
2022/09/23 07:14:28;;;;;;;8.02;6.50;;;;;;;;;;5045142;28;20423;-83
2022/09/23 07:16:55;;;;;;;7.43;6.60;;;;;;;;;;5044844;28;20423;-82
2022/09/23 07:19:22;;;;;;;7.32;6.07;;;;;;;;;;5044587;28;20448;-82
2022/09/23 07:21:48;;;;;;;6.90;6.15;;;;;;;;;;5042934;28;20425;-83
2022/09/23 07:24:16;;;;;;;6.32;5.50;;;;;;;;;;5044155;28;20429;-82
2022/09/23 07:26:43;;;;;;;8.38;6.40;;;;;;;;;;5043206;28;20412;-83
2022/09/23 07:29:12;;;;;;;6.10;5.50;;;;;;;;;;5044347;28;20425;-81
2022/09/23 07:31:39;;;;;;;6.07;5.40;;;;;;;;;;5046580;28;20421;-84
2022/09/23 07:34:06;;;;;;;7.32;5.80;;;;;;;;;;5045804;28;20429;-81
2022/09/23 07:36:32;;;;;;;6.10;5.47;;;;;;;;;;5043919;28;20429;-81
2022/09/23 07:39:02;;;;;;;7.03;5.83;;;;;;;;;;5043213;28;20931;-81
2022/09/23 07:41:30;;;;;;;8.35;5.65;;;;;;;;;;5044060;28;20419;-82
2022/09/23 07:43:57;;;;;;;8.20;5.95;;;;;;;;;;5042189;28;20438;-80
2022/09/23 07:46:26;;;;;;;6.97;5.75;;;;;;;;;;5044367;28;20487;-81
2022/09/23 07:48:53;;;;;;;6.10;5.20;;;;;;;;;;5045796;28;20432;-81
2022/09/23 07:51:20;;;;;;;9.82;5.40;;;;;;;;;;5042571;28;20457;-81
2022/09/23 07:53:47;;;;;;;6.55;5.22;;;;;;;;;;5041996;28;20407;-81
2022/09/23 07:56:14;;;;;;;6.88;4.63;;;;;;;;;;5042811;28;20413;-82
2022/09/23 07:58:42;;;;;;;5.68;5.10;;;;;;;;;;5044008;28;20919;-81
2022/09/23 08:01:09;;;;;;;6.72;5.22;;;;;;;;;;5045402;28;20429;-81
2022/09/23 08:03:36;;;;;;;5.85;4.80;;;;;;;;;;5043550;28;20430;-81
2022/09/23 08:06:04;;;;;;;7.97;5.23;;;;;;;;;;5045078;28;20427;-81
2022/09/23 08:08:30;;;;;;;9.40;4.60;;;;;;;;;;5042938;28;20928;-81
2022/09/23 08:11:00;;;;;;;7.65;5.80;;;;;;;;;;5045253;28;20441;-81
2022/09/23 08:13:26;;;;;;;7.13;4.97;;;;;;;;;;5041302;28;20423;-81
2022/09/23 08:15:54;;;;;;;6.97;5.18;;;;;;;;;;5044116;28;21012;-82
2022/09/23 08:18:21;;;;;;;8.73;5.22;;;;;;;;;;5044417;28;20432;-80
2022/09/23 08:20:47;;;;;;;5.80;5.20;;;;;;;;;;5044542;28;20805;-81
2022/09/23 08:23:14;;;;;;;6.05;5.45;;;;;;;;;;5039907;28;20431;-82
2022/09/23 08:25:41;;;;;;;6.00;5.40;;;;;;;;;;5040644;28;20439;-80
2022/09/23 08:28:08;;;;;;;5.15;4.65;;;;;;;;;;5042867;28;20511;-81
2022/09/23 08:30:34;;;;;;;6.57;4.97;;;;;;;;;;5044789;28;20477;-81
2022/09/23 08:33:02;;;;;;;5.60;5.10;;;;;;;;;;5060104;28;20415;-81
2022/09/23 08:35:29;;;;;;;6.45;4.97;;;;;;;;;;5041625;28;20434;-82
2022/09/23 08:37:55;;;;;;;7.18;5.07;;;;;;;;;;5042408;28;20427;-82
2022/09/23 08:40:22;;;;;;;5.50;5.00;;;;;;;;;;5043824;28;20921;-81
2022/09/23 08:42:48;;;;;;;7.03;5.38;;;;;;;;;;5042197;28;20418;-83
2022/09/23 08:45:17;;;;;;;6.70;4.63;;;;;;;;;;5042286;28;21471;-81
2022/09/23 08:47:46;;;;;;;6.30;4.70;;;;;;;;;;5041278;28;20925;-82
2022/09/23 08:50:17;;;;;;;5.57;5.07;;;;;;;;;;5043793;28;20454;-82
2022/09/23 08:52:48;;;;;;;5.80;5.00;;;;;;;;;;5043550;28;20413;-81
2022/09/23 08:55:14;;;;;;;7.05;5.00;;;;;;;;;;5043911;28;20418;-81
2022/09/23 08:57:45;;;;;;;5.40;4.80;;;;;;;;;;5042499;28;20419;-81
2022/09/23 09:00:15;;;;;;;6.20;4.65;;;;;;;;;;5042760;28;20425;-83
2022/09/23 09:02:41;;;;;;;8.13;4.93;;;;;;;;;;5041956;28;20426;-82
2022/09/23 09:05:09;;;;;;;5.10;4.20;;;;;;;;;;5043238;28;20407;-81
2022/09/23 09:07:38;;;;;;;4.90;4.40;;;;;;;;;;5042840;28;21014;-81
2022/09/23 09:10:10;;;;;;;5.22;4.20;;;;;;;;;;5044931;28;20429;-81
2022/09/23 09:12:39;;;;;;;6.72;4.70;;;;;;;;;;5043972;28;20418;-83
2022/09/23 09:15:09;;;;;;;6.97;4.13;;;;;;;;;;5042486;28;20431;-81
2022/09/23 09:17:38;;;;;;;4.85;4.25;;;;;;;;;;5043460;28;20845;-81
2022/09/23 09:20:17;;;;;;;4.60;4.00;;;;;;;;;;5046891;28;20425;-81
2022/09/23 09:22:51;;;;;;;4.22;3.83;;;;;;;;;;5043591;28;20893;-83
2022/09/23 09:25:21;;;;;;;4.40;4.00;;;;;;;;;;5045042;28;20421;-82
2022/09/23 09:27:48;;;;;;;5.35;3.90;;;;;;;;;;5044283;28;20443;-83
2022/09/23 09:30:14;;;;;;;3.75;3.35;;;;;;;;;;5040729;28;20437;-83
2022/09/23 09:32:47;;;;;;;5.43;4.25;;;;;;;;;;5044312;28;20466;-82
2022/09/23 09:35:18;;;;;;;4.60;4.10;;;;;;;;;;5041655;28;20419;-82
2022/09/23 09:37:47;;;;;;;5.78;3.92;;;;;;;;;;5039783;28;20848;-83
2022/09/23 09:40:16;;;;;;;5.05;4.30;;;;;;;;;;5042340;28;20434;-83
2022/09/23 09:42:45;;;;;;;5.50;4.63;;;;;;;;;;5037552;28;20430;-83
2022/09/23 09:45:18;;;;;;;5.05;3.78;;;;;;;;;;5039855;28;21049;-83
2022/09/23 09:47:48;;;;;;;6.70;4.20;;;;;;;;;;5043217;28;20421;-82
2022/09/23 09:50:20;;;;;;;6.53;4.85;;;;;;;;;;5044579;28;20425;-83
2022/09/23 09:52:47;;;;;;;4.82;4.13;;;;;;;;;;5044962;28;20415;-82
2022/09/23 09:55:31;;;;;;;5.22;4.15;;;;;;;;;;5046122;28;20430;-81
2022/09/23 09:58:03;;;;;;;5.03;4.50;;;;;;;;;;5045916;28;20422;-81
2022/09/23 10:00:37;;;;;;;4.53;3.95;;;;;;;;;;5045875;28;20431;-83
2022/09/23 10:03:08;;;;;;;5.38;4.40;;;;;;;;;;5045733;28;20837;-80
2022/09/23 10:05:35;;;;;;;5.07;4.20;;;;;;;;;;5047042;28;20513;-81
2022/09/23 10:08:21;;;;;;;5.05;4.50;;;;;;;;;;5045427;28;20892;-83
2022/09/23 10:10:53;;;;;;;4.82;4.32;;;;;;;;;;5047493;28;20935;-83
2022/09/23 10:13:23;;;;;;;6.07;4.40;;;;;;;;;;5044616;28;20417;-83
2022/09/23 10:15:53;;;;;;;3.92;3.58;;;;;;;;;;5044658;28;20459;-83
2022/09/23 10:18:20;;;;;;;7.30;4.60;;;;;;;;;;5043976;28;20456;-82
2022/09/23 10:20:48;;;;;;;6.70;4.20;;;;;;;;;;5047973;28;20417;-81
2022/09/23 10:23:16;;;;;;;7.20;4.05;;;;;;;;;;5045519;28;21063;-82
2022/09/23 10:25:43;;;;;;;5.07;4.00;;;;;;;;;;5046317;28;20461;-83
2022/09/23 10:28:28;;;;;;;5.30;3.70;;;;;;;;;;5042050;28;20915;-83
2022/09/23 10:31:05;;;;;;;4.68;4.28;;;;;;;;;;5047830;28;20421;-83
2022/09/23 10:33:32;;;;;;;4.22;3.50;;;;;;;;;;5044490;28;21050;-83
2022/09/23 10:35:58;;;;;;;4.90;3.80;;;;;;;;;;5046653;28;20425;-82
2022/09/23 10:38:25;;;;;;;4.15;3.60;;;;;;;;;;5047051;28;20422;-80
2022/09/23 10:46:40;;;;;;;4.53;4.10;;;;;;;;;;5046385;28;20426;-83
2022/09/23 10:49:16;;;;;;;5.82;4.18;;;;;;;;;;5061421;28;20446;-80
2022/09/23 10:51:46;;;;;;;4.95;4.18;;;;;;;;;;5046605;28;20428;-82
2022/09/23 10:54:18;;;;;;;4.80;4.30;;;;;;;;;;5045152;28;20421;-82
2022/09/23 10:56:46;;;;;;;5.20;4.00;;;;;;;;;;5044382;28;20425;-82
2022/09/23 10:59:26;;;;;;;4.60;3.90;;;;;;;;;;5044276;28;20440;-83
2022/09/23 11:02:01;;;;;;;6.22;3.80;;;;;;;;;;5045258;28;20988;-82
2022/09/23 11:04:51;;;;;;;4.85;4.45;;;;;;;;;;5043980;28;20616;-81
2022/09/23 11:07:22;;;;;;;4.57;4.15;;;;;;;;;;5044070;28;20418;-83
2022/09/23 11:09:55;;;;;;;6.30;4.20;;;;;;;;;;5044266;28;20411;-81
2022/09/23 11:12:30;;;;;;;5.50;4.20;;;;;;;;;;5045654;28;20426;-81
2022/09/23 11:15:02;;;;;;;4.05;3.65;;;;;;;;;;5047142;28;20520;-83
2022/09/23 11:17:42;;;;;;;7.45;3.85;;;;;;;;;;5043672;28;20512;-83
2022/09/23 11:20:30;;;;;;;5.63;3.90;;;;;;;;;;5045926;28;20421;-81
2022/09/23 11:23:07;;;;;;;5.32;4.20;;;;;;;;;;5043292;28;20430;-81
2022/09/23 11:25:41;;;;;;;6.28;3.85;;;;;;;;;;5045829;28;20432;-81
2022/09/23 11:28:24;;;;;;;4.57;3.88;;;;;;;;;;5044919;28;20428;-81
2022/09/23 11:30:54;;;;;;;5.82;3.92;;;;;;;;;;5047483;28;20772;-84
2022/09/23 11:33:32;;;;;;;4.30;3.47;;;;;;;;;;5044927;28;20413;-81
2022/09/23 11:36:02;;;;;;;9.90;4.05;;;;;;;;;;5043631;28;20769;-81
2022/09/23 11:38:31;;;;;;;6.30;4.40;;;;;;;;;;5045393;28;20421;-81
2022/09/23 11:41:01;;;;;;;4.63;4.05;;;;;;;;;;5044449;28;20410;-83
2022/09/23 11:43:30;;;;;;;4.60;3.90;;;;;;;;;;5046143;28;20423;-81
2022/09/23 11:45:58;;;;;;;4.90;3.80;;;;;;;;;;5043414;28;20437;-81
2022/09/23 11:48:28;;;;;;;6.90;4.93;;;;;;;;;;5043643;28;20423;-81
2022/09/23 11:50:58;;;;;;;4.53;4.10;;;;;;;;;;5042027;28;20427;-83
2022/09/23 11:53:29;;;;;;;5.70;4.57;;;;;;;;;;5042663;28;21222;-83
2022/09/23 11:56:02;;;;;;;5.67;4.30;;;;;;;;;;5043112;28;20467;-83
2022/09/23 11:58:30;;;;;;;4.68;4.20;;;;;;;;;;5042042;28;20434;-83
2022/09/23 12:00:59;;;;;;;10.48;4.90;;;;;;;;;;5043253;28;20417;-81
2022/09/23 12:03:32;;;;;;;5.00;4.60;;;;;;;;;;5043241;28;20421;-84
2022/09/23 12:06:02;;;;;;;7.60;4.72;;;;;;;;;;5044217;28;20797;-82
2022/09/23 12:08:31;;;;;;;5.65;4.30;;;;;;;;;;5043218;28;20417;-83
2022/09/23 12:11:02;;;;;;;5.85;4.70;;;;;;;;;;5043282;28;20454;-82
2022/09/23 12:13:33;;;;;;;5.80;4.40;;;;;;;;;;5042766;28;20942;-83
2022/09/23 12:16:08;;;;;;;5.63;4.85;;;;;;;;;;5042382;28;20461;-80
2022/09/23 12:18:43;;;;;;;5.45;4.10;;;;;;;;;;5044060;28;20427;-82
2022/09/23 12:21:28;;;;;;;7.88;5.00;;;;;;;;;;5043649;28;20506;-82
2022/09/23 12:24:04;;;;;;;8.35;4.75;;;;;;;;;;5039210;28;20527;-83
2022/09/23 12:26:31;;;;;;;5.97;5.10;;;;;;;;;;5042106;28;20422;-82
2022/09/23 12:29:00;;;;;;;7.30;4.85;;;;;;;;;;5042196;28;20432;-83
2022/09/23 12:31:29;;;;;;;5.43;4.63;;;;;;;;;;5042810;28;20422;-80
2022/09/23 12:33:57;;;;;;;6.57;5.70;;;;;;;;;;5040350;28;20777;-82
2022/09/23 12:36:27;;;;;;;5.60;5.10;;;;;;;;;;5043759;28;20421;-83
2022/09/23 12:38:55;;;;;;;6.63;5.20;;;;;;;;;;5042106;28;20421;-83
2022/09/23 12:41:25;;;;;;;5.90;5.30;;;;;;;;;;5044980;28;20419;-83
2022/09/23 12:43:54;;;;;;;8.60;5.80;;;;;;;;;;5040750;28;20421;-82
2022/09/23 12:46:24;;;;;;;5.83;5.23;;;;;;;;;;5039918;28;20459;-83
2022/09/23 12:49:01;;;;;;;6.22;5.38;;;;;;;;;;5042897;28;20458;-82
2022/09/23 12:51:29;;;;;;;7.85;5.15;;;;;;;;;;5044510;28;20479;-82
2022/09/23 12:54:21;;;;;;;5.35;4.75;;;;;;;;;;5039097;28;20435;-83
2022/09/23 12:56:58;;;;;;;9.02;5.20;;;;;;;;;;5041654;28;20452;-82
2022/09/23 12:59:26;;;;;;;5.47;4.97;;;;;;;;;;5043277;28;20431;-83
2022/09/23 13:01:53;;;;;;;6.47;5.00;;;;;;;;;;5041168;28;20418;-82
2022/09/23 13:07:14;;;;;;;7.85;5.38;;;;;;;;;;5042660;28;20534;-82
2022/09/23 13:09:42;;;;;;;5.70;5.20;;;;;;;;;;5039051;28;20462;-82
2022/09/23 13:12:14;;;;;;;5.82;5.20;;;;;;;;;;5039618;28;20938;-83
2022/09/23 13:14:43;;;;;;;5.60;4.97;;;;;;;;;;5059979;28;20432;-82
2022/09/23 13:17:22;;;;;;;7.30;5.82;;;;;;;;;;5060240;28;20508;-82
2022/09/23 13:19:57;;;;;;;5.90;5.30;;;;;;;;;;5062218;28;20410;-82
2022/09/23 13:22:40;;;;;;;9.27;6.60;;;;;;;;;;5060018;28;20442;-82
2022/09/23 13:25:09;;;;;;;6.60;6.00;;;;;;;;;;5063872;28;20479;-83
2022/09/23 13:27:36;;;;;;;6.75;6.05;;;;;;;;;;5066097;28;20416;-82
2022/09/23 13:30:04;;;;;;;8.65;5.90;;;;;;;;;;5047422;28;20444;-82
2022/09/23 13:32:32;;;;;;;6.57;5.90;;;;;;;;;;5047378;28;20521;-81
2022/09/23 13:35:01;;;;;;;6.95;6.35;;;;;;;;;;5049141;28;20417;-82
2022/09/23 13:37:38;;;;;;;9.98;5.85;;;;;;;;;;5047193;28;20439;-81
2022/09/23 13:40:16;;;;;;;6.50;5.70;;;;;;;;;;5049822;28;20428;-82
2022/09/23 13:42:43;;;;;;;6.63;5.75;;;;;;;;;;5046525;28;20433;-83
2022/09/23 13:45:15;;;;;;;7.20;6.10;;;;;;;;;;5048274;28;20927;-82
2022/09/23 13:47:42;;;;;;;6.88;6.20;;;;;;;;;;5049925;28;20409;-82
2022/09/23 13:50:13;;;;;;;6.03;5.40;;;;;;;;;;5050173;28;20439;-81
2022/09/23 13:52:40;;;;;;;7.85;5.80;;;;;;;;;;5054130;28;20411;-81
2022/09/23 13:55:21;;;;;;;8.25;6.13;;;;;;;;;;5070071;28;20925;-81
2022/09/23 13:57:56;;;;;;;6.22;5.20;;;;;;;;;;5063391;28;20414;-83
2022/09/23 14:00:24;;;;;;;7.13;5.35;;;;;;;;;;5047624;28;20425;-83
2022/09/23 14:02:51;;;;;;;6.63;5.55;;;;;;;;;;5049162;28;20417;-83
2022/09/23 14:05:22;;;;;;;7.35;6.18;;;;;;;;;;5048079;28;20872;-82
2022/09/23 14:07:49;;;;;;;7.78;5.82;;;;;;;;;;5046553;28;20476;-83
2022/09/23 14:10:18;;;;;;;10.23;6.13;;;;;;;;;;5049420;28;20452;-82
2022/09/23 14:12:46;;;;;;;7.93;6.30;;;;;;;;;;5047559;28;20506;-83
2022/09/23 14:15:17;;;;;;;6.95;5.82;;;;;;;;;;5046668;28;20512;-82
2022/09/23 14:17:46;;;;;;;7.60;6.50;;;;;;;;;;5047379;28;20423;-83
2022/09/23 14:20:13;;;;;;;8.32;6.55;;;;;;;;;;5047292;28;20487;-82
2022/09/23 14:22:40;;;;;;;6.53;5.65;;;;;;;;;;5047806;28;20466;-81
2022/09/23 14:25:12;;;;;;;6.97;5.93;;;;;;;;;;5050826;28;20431;-82
2022/09/23 14:27:40;;;;;;;6.90;5.80;;;;;;;;;;5048316;28;20699;-81
2022/09/23 14:30:13;;;;;;;8.15;6.30;;;;;;;;;;5048137;28;20426;-81
2022/09/23 14:32:41;;;;;;;6.70;5.70;;;;;;;;;;5046508;28;20414;-82
2022/09/23 14:35:17;;;;;;;7.53;5.57;;;;;;;;;;5047513;28;20474;-82
2022/09/23 14:40:30;;;;;;;9.13;5.53;;;;;;;;;;5044585;28;20473;-82
2022/09/23 14:42:58;;;;;;;8.13;5.70;;;;;;;;;;5043841;28;20413;-83
2022/09/23 14:45:25;;;;;;;6.55;5.35;;;;;;;;;;5048521;28;20841;-82
2022/09/23 14:47:57;;;;;;;8.25;5.80;;;;;;;;;;5043960;28;21018;-83
2022/09/23 14:50:38;;;;;;;9.27;6.78;;;;;;;;;;5045859;28;20433;-81
2022/09/23 14:53:05;;;;;;;7.75;6.18;;;;;;;;;;5045369;28;20493;-83
2022/09/23 14:55:32;;;;;;;7.70;6.90;;;;;;;;;;5045675;28;20423;-84
2022/09/23 14:58:03;;;;;;;9.90;6.75;;;;;;;;;;5044022;28;20544;-82
2022/09/23 15:00:30;;;;;;;9.40;7.38;;;;;;;;;;5046118;28;20433;-81
2022/09/23 15:03:02;;;;;;;9.15;8.32;;;;;;;;;;5046493;28;20909;-82
2022/09/23 15:05:38;;;;;;;10.15;7.03;;;;;;;;;;5042827;28;20791;-83
2022/09/23 15:08:05;;;;;;;7.85;7.05;;;;;;;;;;5044683;28;20436;-82
2022/09/23 15:10:32;;;;;;;9.82;7.63;;;;;;;;;;5043266;28;20421;-83